Time;durP1;ratioP1;P1;durP2;ratioP2;P2;SDS_P1;SDS_P2;PMS_P1;PMS_P2;Temp;Humidity;BMP_temperature;BMP_pressure;BME280_temperature;BME280_humidity;BME280_pressure;Samples;Min_cycle;Max_cycle;Signal;HPM_P1;HPM_P2
2021/04/11 00:01:11;;;;;;;8.30;4.93;;;18.70;42.70;;;;;;5026712;28;20225;-46
2021/04/11 00:03:37;;;;;;;5.37;4.93;;;18.60;42.90;;;;;;5027667;28;20263;-47
2021/04/11 00:06:03;;;;;;;6.43;5.77;;;18.60;42.90;;;;;;5030333;28;20436;-47
2021/04/11 00:08:29;;;;;;;6.40;4.90;;;18.60;42.80;;;;;;5024514;28;20247;-44
2021/04/11 00:11:03;;;;;;;5.40;4.90;;;18.60;42.90;;;;;;5013918;28;20196;-44
2021/04/11 00:13:31;;;;;;;7.10;5.07;;;18.60;42.80;;;;;;5026416;28;20510;-43
2021/04/11 00:15:57;;;;;;;9.80;5.50;;;18.60;42.90;;;;;;5023247;28;20965;-43
2021/04/11 00:18:23;;;;;;;6.40;4.47;;;18.50;42.70;;;;;;5030040;28;20492;-47
2021/04/11 00:20:49;;;;;;;5.93;4.90;;;18.50;42.80;;;;;;5028089;28;20225;-47
2021/04/11 00:23:16;;;;;;;6.17;4.90;;;18.50;42.90;;;;;;5027213;28;20259;-44
2021/04/11 00:25:42;;;;;;;6.70;4.93;;;18.50;42.80;;;;;;5030022;28;20464;-47
2021/04/11 00:28:09;;;;;;;5.60;4.90;;;18.40;42.70;;;;;;5026028;28;20519;-45
2021/04/11 00:30:35;;;;;;;6.30;5.27;;;18.40;42.80;;;;;;5027142;28;20182;-47
2021/04/11 00:33:03;;;;;;;5.63;4.43;;;18.20;43.00;;;;;;5028427;28;20448;-48
2021/04/11 00:35:29;;;;;;;5.60;5.10;;;17.80;43.70;;;;;;5021593;28;20243;-43
2021/04/11 00:37:55;;;;;;;4.73;4.17;;;17.80;44.00;;;;;;5027119;28;20824;-45
2021/04/11 00:40:40;;;;;;;13.13;5.03;;;17.90;44.00;;;;;;5022429;28;20680;-47
2021/04/11 00:43:08;;;;;;;5.67;5.13;;;17.90;43.90;;;;;;5030471;28;20452;-47
2021/04/11 00:46:06;;;;;;;5.53;5.00;;;17.90;43.80;;;;;;5030653;28;20448;-46
2021/04/11 00:48:34;;;;;;;4.93;3.70;;;18.00;43.70;;;;;;5021075;28;20814;-45
2021/04/11 00:51:05;;;;;;;4.80;4.00;;;17.90;43.40;;;;;;5027021;28;20440;-47
2021/04/11 00:53:31;;;;;;;4.53;4.10;;;18.00;43.20;;;;;;5029358;28;20909;-47
2021/04/11 00:55:57;;;;;;;5.20;3.67;;;17.90;42.90;;;;;;5028869;28;20533;-46
2021/04/11 00:58:24;;;;;;;5.57;3.97;;;17.90;42.70;;;;;;5023326;28;20950;-44
2021/04/11 01:00:50;;;;;;;5.17;3.73;;;17.90;42.60;;;;;;5022545;28;20903;-45
2021/04/11 01:03:20;;;;;;;4.03;3.53;;;17.90;42.60;;;;;;5027160;28;20452;-43
2021/04/11 01:05:46;;;;;;;5.10;3.67;;;17.90;42.30;;;;;;5030925;28;20192;-47
2021/04/11 01:08:15;;;;;;;3.63;3.33;;;17.70;42.10;;;;;;5020595;28;20447;-46
2021/04/11 01:11:05;;;;;;;3.73;3.23;;;17.80;42.20;;;;;;5023987;28;20443;-45
2021/04/11 01:13:33;;;;;;;4.33;3.77;;;17.60;42.60;;;;;;5021738;28;20501;-42
2021/04/11 01:16:00;;;;;;;4.30;3.33;;;17.30;43.40;;;;;;5026198;28;20470;-47
2021/04/11 01:18:26;;;;;;;4.17;3.07;;;17.20;43.50;;;;;;5023770;28;20479;-45
2021/04/11 01:20:54;;;;;;;3.23;2.93;;;17.20;43.50;;;;;;5028157;28;20495;-46
2021/04/11 01:23:27;;;;;;;3.40;3.10;;;17.30;43.20;;;;;;5027285;28;20202;-45
2021/04/11 01:25:57;;;;;;;3.33;3.03;;;17.40;43.00;;;;;;5026960;28;20456;-43
2021/04/11 01:28:33;;;;;;;3.63;2.90;;;17.50;42.70;;;;;;5026025;28;20448;-46
2021/04/11 01:31:05;;;;;;;3.40;3.10;;;17.50;42.60;;;;;;5025963;28;20455;-43
2021/04/11 01:33:34;;;;;;;4.97;3.13;;;17.50;42.60;;;;;;5027749;28;20455;-46
2021/04/11 01:36:03;;;;;;;4.70;3.60;;;17.40;42.80;;;;;;5018731;28;21006;-43
2021/04/11 01:38:28;;;;;;;4.37;3.30;;;17.20;43.80;;;;;;5026352;28;20502;-44
2021/04/11 01:41:26;;;;;;;4.90;3.07;;;17.20;43.40;;;;;;5020697;28;20491;-42
2021/04/11 01:43:53;;;;;;;3.17;2.87;;;17.20;43.30;;;;;;5023594;28;20536;-46
2021/04/11 01:46:21;;;;;;;4.43;3.60;;;17.20;43.10;;;;;;5027056;28;20446;-44
2021/04/11 01:48:48;;;;;;;5.13;3.17;;;17.20;43.00;;;;;;5026493;28;20448;-44
2021/04/11 01:51:18;;;;;;;5.93;3.30;;;17.30;43.00;;;;;;5025554;28;20849;-47
2021/04/11 01:53:44;;;;;;;4.00;3.30;;;17.30;43.10;;;;;;5025030;28;20795;-45
2021/04/11 01:56:12;;;;;;;4.00;3.20;;;17.20;43.10;;;;;;5012860;28;21015;-46
2021/04/11 01:58:39;;;;;;;6.60;3.27;;;17.00;43.50;;;;;;5024533;28;20454;-44
2021/04/11 02:01:14;;;;;;;4.93;3.90;;;17.00;43.90;;;;;;5025566;28;21002;-47
2021/04/11 02:03:40;;;;;;;4.93;4.47;;;17.10;44.10;;;;;;5025833;28;20555;-44
2021/04/11 02:06:07;;;;;;;9.13;3.40;;;17.10;44.40;;;;;;5023021;28;20535;-44
2021/04/11 02:08:36;;;;;;;5.20;4.30;;;17.00;44.60;;;;;;5020942;28;20193;-44
2021/04/11 02:11:04;;;;;;;6.40;5.70;;;17.00;45.30;;;;;;5022462;28;20437;-46
2021/04/11 02:13:33;;;;;;;4.43;4.03;;;17.00;45.70;;;;;;5029204;28;20615;-48
2021/04/11 02:16:01;;;;;;;4.20;3.80;;;17.00;45.70;;;;;;5024089;28;20451;-46
2021/04/11 02:18:29;;;;;;;4.13;3.70;;;17.10;45.40;;;;;;5022179;28;20487;-43
2021/04/11 02:20:58;;;;;;;4.70;3.87;;;17.10;45.20;;;;;;5024717;28;20496;-45
2021/04/11 02:23:26;;;;;;;4.93;4.30;;;17.10;45.40;;;;;;5024633;28;20493;-48
2021/04/11 02:25:53;;;;;;;4.60;3.67;;;17.10;45.50;;;;;;5021026;28;20466;-47
2021/04/11 02:28:24;;;;;;;4.27;3.87;;;17.00;45.80;;;;;;5028676;28;20448;-45
2021/04/11 02:30:54;;;;;;;6.00;4.40;;;17.10;46.40;;;;;;5029900;28;20462;-46
2021/04/11 02:33:20;;;;;;;5.93;4.40;;;17.00;46.80;;;;;;5028186;28;20511;-45
2021/04/11 02:35:46;;;;;;;5.20;4.50;;;17.10;47.20;;;;;;5025127;28;20451;-43
2021/04/11 02:38:13;;;;;;;4.80;4.10;;;17.00;47.30;;;;;;5023381;28;20452;-43
2021/04/11 02:40:45;;;;;;;4.57;4.13;;;17.00;47.50;;;;;;5028294;28;20693;-47
2021/04/11 02:43:12;;;;;;;5.03;4.40;;;17.00;47.50;;;;;;5021068;28;20465;-47
2021/04/11 02:45:46;;;;;;;4.83;4.43;;;17.00;47.70;;;;;;5022096;28;20455;-44
2021/04/11 02:48:13;;;;;;;6.90;3.57;;;17.00;47.40;;;;;;5026861;28;20447;-43
2021/04/11 02:50:42;;;;;;;3.43;3.20;;;17.00;47.30;;;;;;5029198;28;20448;-47
2021/04/11 02:53:16;;;;;;;4.53;4.10;;;17.00;47.40;;;;;;5026649;28;20469;-46
2021/04/11 02:55:43;;;;;;;4.30;3.40;;;17.00;47.40;;;;;;5023579;28;21304;-43
2021/04/11 02:58:11;;;;;;;6.93;3.83;;;17.00;47.60;;;;;;5037524;28;20443;-43
2021/04/11 03:00:46;;;;;;;4.83;3.47;;;17.00;47.40;;;;;;5028060;28;20978;-47
2021/04/11 03:03:12;;;;;;;4.40;4.00;;;16.90;47.10;;;;;;5024997;28;20789;-47
2021/04/11 03:05:37;;;;;;;4.60;4.20;;;16.80;47.50;;;;;;5030704;28;20451;-46
2021/04/11 03:08:10;;;;;;;7.20;3.47;;;16.80;47.80;;;;;;5028182;28;20579;-43
2021/04/11 03:11:03;;;;;;;5.33;4.50;;;16.80;47.80;;;;;;5029215;28;20200;-44
2021/04/11 03:13:29;;;;;;;6.03;4.50;;;16.80;48.40;;;;;;5028594;28;20535;-48
2021/04/11 03:15:56;;;;;;;5.10;4.60;;;16.70;48.70;;;;;;5029303;28;20494;-47
2021/04/11 03:18:23;;;;;;;5.10;4.63;;;16.60;48.90;;;;;;5020942;28;20479;-46
2021/04/11 03:20:50;;;;;;;5.03;4.60;;;16.60;48.80;;;;;;5027466;28;20506;-45
2021/04/11 03:23:17;;;;;;;4.70;4.23;;;16.30;49.20;;;;;;5031624;28;20452;-46
2021/04/11 03:25:43;;;;;;;7.17;5.40;;;16.20;50.00;;;;;;5028890;28;20978;-43
2021/04/11 03:28:22;;;;;;;5.90;4.50;;;15.90;50.70;;;;;;5027032;28;20436;-47
2021/04/11 03:31:04;;;;;;;5.53;4.37;;;15.80;51.00;;;;;;5026519;28;21362;-42
2021/04/11 03:33:34;;;;;;;5.37;4.73;;;15.50;51.70;;;;;;5029689;28;20451;-47
2021/04/11 03:36:02;;;;;;;5.43;4.90;;;15.00;53.20;;;;;;5021477;28;20923;-46
2021/04/11 03:38:30;;;;;;;6.43;4.77;;;14.80;53.90;;;;;;5026895;28;20455;-46
2021/04/11 03:40:57;;;;;;;5.93;5.00;;;14.80;54.20;;;;;;5028018;28;20492;-47
2021/04/11 03:43:46;;;;;;;5.03;4.57;;;14.70;54.20;;;;;;5028803;28;20501;-45
2021/04/11 03:46:22;;;;;;;7.90;4.43;;;14.50;55.00;;;;;;5023457;28;20466;-47
2021/04/11 03:48:56;;;;;;;5.20;4.70;;;14.70;54.60;;;;;;5023363;28;20447;-46
2021/04/11 03:51:25;;;;;;;6.53;4.50;;;14.70;54.30;;;;;;5026777;28;20451;-43
2021/04/11 03:53:55;;;;;;;9.27;3.83;;;14.70;54.20;;;;;;5025495;28;20535;-45
2021/04/11 03:56:26;;;;;;;6.90;4.30;;;14.80;53.80;;;;;;5020537;28;20932;-46
2021/04/11 03:58:56;;;;;;;3.93;3.50;;;14.90;53.10;;;;;;5030419;28;20466;-44
2021/04/11 04:01:26;;;;;;;5.83;4.17;;;14.90;52.80;;;;;;5029867;28;20479;-43
2021/04/11 04:03:58;;;;;;;5.17;4.60;;;15.00;52.70;;;;;;5029008;28;20554;-45
2021/04/11 04:06:29;;;;;;;4.17;3.77;;;14.90;52.70;;;;;;5025505;28;20441;-46
2021/04/11 04:08:55;;;;;;;3.60;3.23;;;15.00;52.70;;;;;;5026075;28;20450;-42
2021/04/11 04:11:59;;;;;;;5.73;5.23;;;15.20;52.30;;;;;;5025835;28;20932;-44
2021/04/11 04:14:42;;;;;;;4.10;3.70;;;15.30;51.80;;;;;;5023890;28;20368;-43
2021/04/11 04:17:18;;;;;;;4.40;3.80;;;15.50;51.40;;;;;;5029941;28;20931;-44
2021/04/11 04:20:15;;;;;;;3.90;3.57;;;15.50;51.10;;;;;;5028131;28;20981;-43
2021/04/11 04:22:59;;;;;;;5.40;3.80;;;15.50;51.20;;;;;;5003010;28;20460;-43
2021/04/11 04:25:40;;;;;;;4.47;3.70;;;15.20;51.80;;;;;;5028479;28;20804;-47
2021/04/11 04:28:10;;;;;;;5.90;3.40;;;15.30;51.90;;;;;;5028897;28;20444;-47
2021/04/11 04:31:02;;;;;;;4.03;3.63;;;15.10;51.90;;;;;;5029437;28;20459;-44
2021/04/11 04:33:58;;;;;;;4.40;3.90;;;15.20;52.00;;;;;;5026851;28;20441;-47
2021/04/11 04:36:45;;;;;;;4.43;3.80;;;15.40;51.60;;;;;;5022544;28;20810;-44
2021/04/11 04:39:17;;;;;;;3.60;3.30;;;15.50;51.10;;;;;;5027679;28;20459;-46
2021/04/11 04:42:20;;;;;;;3.70;3.40;;;15.40;51.00;;;;;;5027040;28;20498;-45
2021/04/11 04:45:06;;;;;;;4.63;4.00;;;15.20;51.90;;;;;;5025569;28;20502;-47
2021/04/11 04:47:38;;;;;;;4.73;3.67;;;15.20;52.00;;;;;;5015665;28;20484;-45
2021/04/11 04:50:34;;;;;;;5.07;3.83;;;15.10;52.30;;;;;;5017546;28;20457;-47
2021/04/11 04:53:38;;;;;;;4.70;3.70;;;15.00;52.80;;;;;;5020443;28;20817;-47
2021/04/11 04:56:06;;;;;;;3.77;3.13;;;14.80;53.20;;;;;;5026068;28;20432;-47
2021/04/11 04:58:40;;;;;;;3.83;3.07;;;14.80;53.00;;;;;;5026919;28;20451;-44
2021/04/11 05:01:15;;;;;;;3.20;3.00;;;15.00;52.10;;;;;;5023727;28;20613;-47
2021/04/11 05:03:49;;;;;;;4.30;3.37;;;15.20;51.70;;;;;;5021502;28;20448;-45
2021/04/11 05:06:43;;;;;;;3.67;2.80;;;15.40;51.20;;;;;;5023694;28;20486;-45
2021/04/11 05:09:15;;;;;;;3.97;2.97;;;15.60;50.90;;;;;;5022210;28;20798;-42
2021/04/11 05:11:55;;;;;;;3.50;3.20;;;15.80;50.60;;;;;;5026814;28;20443;-46
2021/04/11 05:14:24;;;;;;;3.87;3.47;;;15.80;50.00;;;;;;5024469;28;20547;-42
2021/04/11 05:17:08;;;;;;;6.80;4.27;;;15.80;49.70;;;;;;5021282;28;20440;-46
2021/04/11 05:19:46;;;;;;;4.93;3.20;;;15.90;49.80;;;;;;5026859;28;20447;-43
2021/04/11 05:22:15;;;;;;;3.30;2.87;;;15.80;49.90;;;;;;5024765;28;20459;-43
2021/04/11 05:24:56;;;;;;;4.10;3.70;;;15.80;49.70;;;;;;5024786;28;20962;-45
2021/04/11 05:27:47;;;;;;;5.90;4.37;;;15.80;49.80;;;;;;5027149;28;20440;-44
2021/04/11 05:30:20;;;;;;;12.60;4.40;;;15.90;49.80;;;;;;5022695;28;20448;-41
2021/04/11 05:32:48;;;;;;;5.97;3.43;;;15.90;50.30;;;;;;5025931;28;20444;-42
2021/04/11 05:35:14;;;;;;;6.00;3.97;;;15.90;50.60;;;;;;5027549;28;20510;-43
2021/04/11 05:37:57;;;;;;;4.00;3.40;;;16.00;50.50;;;;;;5028227;28;20443;-41
2021/04/11 05:40:29;;;;;;;7.90;3.83;;;16.10;50.50;;;;;;5028953;28;20693;-43
2021/04/11 05:42:59;;;;;;;3.87;3.33;;;16.30;50.30;;;;;;5025638;28;20459;-42
2021/04/11 05:45:26;;;;;;;3.07;2.83;;;16.40;49.80;;;;;;5024760;28;20444;-42
2021/04/11 05:48:27;;;;;;;3.83;3.50;;;16.50;49.80;;;;;;5024850;28;20440;-46
2021/04/11 05:51:01;;;;;;;3.70;3.23;;;16.70;49.00;;;;;;5020787;28;20525;-43
2021/04/11 05:53:33;;;;;;;2.77;2.57;;;17.20;48.00;;;;;;5024241;28;20540;-42
2021/04/11 05:56:05;;;;;;;4.97;3.30;;;17.50;47.30;;;;;;5028341;28;20497;-44
2021/04/11 05:58:42;;;;;;;3.23;2.93;;;17.70;46.50;;;;;;5025534;28;20447;-46
2021/04/11 06:01:15;;;;;;;6.87;3.50;;;17.90;46.10;;;;;;5027641;28;20574;-42
2021/04/11 06:04:12;;;;;;;4.80;4.00;;;18.10;45.70;;;;;;5026043;28;20455;-43
2021/04/11 06:06:38;;;;;;;3.70;2.80;;;18.30;45.10;;;;;;5015679;28;21035;-46
2021/04/11 06:09:11;;;;;;;4.47;3.53;;;18.50;44.70;;;;;;5025307;28;20528;-45
2021/04/11 06:11:45;;;;;;;2.77;2.57;;;18.60;44.50;;;;;;5029026;28;20308;-43
2021/04/11 06:14:25;;;;;;;5.30;3.40;;;18.60;44.20;;;;;;5029602;28;20443;-44
2021/04/11 06:16:51;;;;;;;3.57;2.97;;;18.60;44.10;;;;;;5030750;28;20516;-42
2021/04/11 06:19:18;;;;;;;4.60;3.40;;;18.70;44.00;;;;;;5026918;28;20471;-46
2021/04/11 06:22:07;;;;;;;4.00;3.60;;;18.70;43.80;;;;;;5029811;28;20582;-43
2021/04/11 06:24:46;;;;;;;6.03;3.57;;;18.90;43.70;;;;;;5024984;28;20473;-43
2021/04/11 06:27:33;;;;;;;6.97;3.60;;;18.80;43.50;;;;;;5024606;28;20475;-42
2021/04/11 06:30:13;;;;;;;3.93;3.53;;;18.90;44.10;;;;;;5027172;28;20455;-47
2021/04/11 06:32:49;;;;;;;4.90;3.40;;;18.90;43.60;;;;;;5022319;28;20452;-42
2021/04/11 06:35:22;;;;;;;3.90;3.60;;;18.90;43.70;;;;;;5033203;28;20451;-45
2021/04/11 06:37:53;;;;;;;3.23;2.93;;;19.00;43.50;;;;;;5019868;28;20940;-44
2021/04/11 06:40:35;;;;;;;3.37;3.17;;;19.20;43.50;;;;;;5031283;28;20593;-45
2021/04/11 06:43:27;;;;;;;3.03;2.70;;;19.10;43.40;;;;;;5030348;28;20501;-43
2021/04/11 06:46:13;;;;;;;3.30;2.90;;;18.90;43.70;;;;;;5027907;28;20454;-46
2021/04/11 06:49:07;;;;;;;3.30;3.00;;;19.10;43.50;;;;;;5031134;28;21302;-46
2021/04/11 06:51:44;;;;;;;3.40;3.20;;;19.00;43.80;;;;;;5028403;28;20947;-44
2021/04/11 06:54:28;;;;;;;3.10;2.90;;;18.90;44.10;;;;;;5032174;28;20440;-45
2021/04/11 06:56:53;;;;;;;4.70;3.40;;;18.90;44.10;;;;;;5031626;28;20452;-43
2021/04/11 06:59:46;;;;;;;4.50;3.37;;;18.80;43.90;;;;;;5024729;28;20440;-47
2021/04/11 07:02:31;;;;;;;4.60;3.00;;;18.90;44.20;;;;;;5022732;28;20481;-45
2021/04/11 07:05:21;;;;;;;3.37;3.07;;;19.10;43.80;;;;;;5030619;28;20962;-42
2021/04/11 07:08:23;;;;;;;3.43;3.13;;;19.20;43.50;;;;;;5025500;28;20475;-47
2021/04/11 07:11:05;;;;;;;4.60;2.73;;;19.20;43.60;;;;;;5015833;28;20449;-44
2021/04/11 07:13:52;;;;;;;3.70;2.80;;;19.30;43.40;;;;;;5032939;28;20538;-46
2021/04/11 07:16:33;;;;;;;4.50;3.63;;;19.10;43.90;;;;;;5023449;28;20806;-46
2021/04/11 07:19:16;;;;;;;3.23;2.90;;;19.20;44.00;;;;;;5023536;28;20473;-42
2021/04/11 07:21:54;;;;;;;3.47;3.17;;;19.30;43.70;;;;;;5016979;28;20523;-43
2021/04/11 07:24:48;;;;;;;3.10;2.80;;;19.60;43.40;;;;;;5023920;28;20947;-43
2021/04/11 07:27:27;;;;;;;3.47;3.17;;;19.40;43.40;;;;;;5022705;28;20440;-47
2021/04/11 07:30:13;;;;;;;6.30;3.20;;;19.60;43.20;;;;;;5029661;28;20440;-44
2021/04/11 07:33:01;;;;;;;3.03;2.53;;;19.80;42.80;;;;;;5023670;28;20585;-43
2021/04/11 07:35:57;;;;;;;4.10;3.53;;;20.00;42.60;;;;;;5020610;28;20880;-45
2021/04/11 07:38:31;;;;;;;3.13;2.77;;;20.00;42.20;;;;;;5026915;28;20448;-44
2021/04/11 07:41:13;;;;;;;3.57;3.27;;;20.20;41.90;;;;;;5025370;28;20478;-43
2021/04/11 07:44:00;;;;;;;3.67;3.27;;;20.30;41.70;;;;;;5041252;28;20463;-45
2021/04/11 07:47:06;;;;;;;4.23;3.13;;;20.40;41.80;;;;;;5035967;28;20435;-47
2021/04/11 07:50:19;;;;;;;4.50;3.20;;;20.40;41.70;;;;;;5019481;28;20484;-45
2021/04/11 07:53:16;;;;;;;2.87;2.63;;;20.50;41.60;;;;;;4951154;28;20483;-46
2021/04/11 07:56:03;;;;;;;5.33;3.13;;;20.60;41.60;;;;;;4946359;28;21222;-42
2021/04/11 07:58:57;;;;;;;4.10;3.60;;;20.60;41.50;;;;;;5013485;28;20452;-43
2021/04/11 08:02:03;;;;;;;4.20;3.10;;;20.60;42.20;;;;;;5028988;28;20507;-43
2021/04/11 08:05:00;;;;;;;7.00;2.70;;;20.70;41.90;;;;;;5021463;28;20463;-45
2021/04/11 08:07:51;;;;;;;2.80;2.60;;;20.70;41.90;;;;;;5015845;28;20452;-48
2021/04/11 08:10:54;;;;;;;3.23;2.87;;;20.80;41.80;;;;;;5018752;28;20436;-46
2021/04/11 08:14:00;;;;;;;5.30;2.93;;;20.90;41.60;;;;;;5027939;28;20530;-43
2021/04/11 08:16:29;;;;;;;3.03;2.70;;;21.00;41.30;;;;;;5003096;28;20509;-43
2021/04/11 08:19:16;;;;;;;4.00;3.27;;;21.20;41.00;;;;;;5031431;28;20482;-44
2021/04/11 08:21:49;;;;;;;3.27;2.97;;;21.30;41.20;;;;;;5022735;28;20487;-47
2021/04/11 08:24:34;;;;;;;4.10;2.43;;;21.40;41.00;;;;;;5024358;28;20473;-47
2021/04/11 08:27:18;;;;;;;4.53;3.57;;;21.50;40.50;;;;;;5028229;28;20432;-43
2021/04/11 08:30:14;;;;;;;4.07;2.40;;;21.60;39.40;;;;;;5031101;28;20904;-46
2021/04/11 08:32:55;;;;;;;2.77;2.50;;;21.70;39.10;;;;;;5025222;28;20443;-45
2021/04/11 08:35:48;;;;;;;1.90;1.80;;;21.80;40.10;;;;;;5023699;28;20437;-42
2021/04/11 08:38:22;;;;;;;2.63;1.70;;;21.70;37.70;;;;;;5022647;28;20454;-44
2021/04/11 08:41:09;;;;;;;2.07;1.87;;;21.80;37.90;;;;;;5031617;28;21227;-44
2021/04/11 08:43:52;;;;;;;2.13;2.03;;;21.90;37.40;;;;;;5026894;28;20451;-47
2021/04/11 08:46:55;;;;;;;3.27;1.90;;;21.90;36.80;;;;;;5029141;28;20517;-44
2021/04/11 08:49:24;;;;;;;1.90;1.80;;;21.80;37.50;;;;;;5023948;28;20440;-45
2021/04/11 08:51:55;;;;;;;1.73;1.60;;;22.00;37.80;;;;;;5028481;28;20443;-43
2021/04/11 08:54:34;;;;;;;2.40;1.50;;;21.90;36.90;;;;;;5021794;28;20936;-46
2021/04/11 08:57:14;;;;;;;2.40;2.07;;;22.00;37.10;;;;;;5023648;28;20443;-47
2021/04/11 09:00:03;;;;;;;1.53;1.43;;;22.10;36.80;;;;;;5022523;28;20487;-45
2021/04/11 09:02:32;;;;;;;2.57;1.87;;;22.30;36.70;;;;;;5025685;28;20458;-44
2021/04/11 09:05:11;;;;;;;3.50;1.43;;;21.90;36.50;;;;;;5024751;28;20444;-44
2021/04/11 09:08:00;;;;;;;2.23;1.70;;;21.90;36.30;;;;;;5026254;28;20862;-43
2021/04/11 09:10:52;;;;;;;1.40;1.30;;;22.00;36.50;;;;;;5028424;28;20471;-42
2021/04/11 09:13:29;;;;;;;2.60;1.67;;;22.00;35.90;;;;;;5028124;28;21141;-46
2021/04/11 09:16:17;;;;;;;2.60;1.53;;;22.20;35.80;;;;;;5030098;28;20451;-44
2021/04/11 09:19:20;;;;;;;2.27;1.33;;;22.20;35.60;;;;;;5021034;28;20531;-43
2021/04/11 09:21:53;;;;;;;2.00;1.83;;;22.30;36.00;;;;;;5027313;28;20529;-44
2021/04/11 09:24:39;;;;;;;1.40;1.30;;;22.30;35.60;;;;;;5021650;28;20462;-47
2021/04/11 09:27:28;;;;;;;2.00;1.40;;;22.40;35.40;;;;;;5027602;28;20466;-44
2021/04/11 09:30:03;;;;;;;7.60;1.70;;;22.40;35.70;;;;;;5033769;28;20443;-43
2021/04/11 09:32:52;;;;;;;3.17;1.60;;;22.50;35.70;;;;;;5034988;28;20431;-43
2021/04/11 09:35:35;;;;;;;2.57;2.07;;;22.50;35.70;;;;;;5032882;28;20455;-44
2021/04/11 09:38:19;;;;;;;1.70;1.50;;;22.50;35.40;;;;;;5033879;28;20515;-44
2021/04/11 09:41:05;;;;;;;2.50;1.87;;;22.40;35.50;;;;;;5036268;28;20491;-42
2021/04/11 09:43:49;;;;;;;1.90;1.50;;;22.40;36.00;;;;;;5036584;28;20467;-43
2021/04/11 09:46:56;;;;;;;2.20;1.40;;;22.60;35.80;;;;;;5032164;28;20445;-43
2021/04/11 09:49:45;;;;;;;3.13;1.63;;;22.60;35.80;;;;;;5036882;28;20435;-44
2021/04/11 09:52:38;;;;;;;4.10;1.90;;;22.80;35.70;;;;;;5026208;28;20444;-46
2021/04/11 09:55:31;;;;;;;2.13;1.77;;;22.60;35.60;;;;;;5043740;28;20439;-45
2021/04/11 09:58:17;;;;;;;2.30;1.67;;;22.50;35.80;;;;;;5039345;28;20439;-44
2021/04/11 10:01:14;;;;;;;1.57;1.47;;;22.50;36.20;;;;;;5035145;28;20502;-47
2021/04/11 10:04:14;;;;;;;1.93;1.73;;;22.70;36.00;;;;;;5029990;28;20452;-44
2021/04/11 10:07:00;;;;;;;5.33;1.90;;;22.70;35.50;;;;;;5044686;28;20554;-44
2021/04/11 10:09:31;;;;;;;2.13;1.93;;;22.80;35.50;;;;;;5032862;28;20522;-46
2021/04/11 10:12:25;;;;;;;6.20;1.50;;;22.90;35.20;;;;;;5033335;28;20495;-43
2021/04/11 10:15:14;;;;;;;1.43;1.30;;;22.90;35.20;;;;;;5038682;28;20428;-43
2021/04/11 10:18:01;;;;;;;5.50;1.63;;;22.80;34.90;;;;;;5032790;28;20475;-44
2021/04/11 10:20:55;;;;;;;2.90;1.60;;;22.80;35.30;;;;;;5031359;28;20822;-43
2021/04/11 10:23:46;;;;;;;1.37;1.27;;;22.90;34.80;;;;;;5032187;28;20458;-44
2021/04/11 10:26:24;;;;;;;2.77;1.40;;;23.00;34.50;;;;;;5030100;28;20435;-45
2021/04/11 10:29:06;;;;;;;1.83;1.60;;;23.40;34.00;;;;;;5046317;28;20912;-43
2021/04/11 10:31:50;;;;;;;1.50;1.40;;;23.50;33.80;;;;;;5037401;28;20930;-47
2021/04/11 10:34:39;;;;;;;9.27;1.70;;;23.70;34.10;;;;;;5039727;28;20957;-44
2021/04/11 10:37:14;;;;;;;3.10;1.20;;;23.80;33.50;;;;;;5033490;28;20455;-44
2021/04/11 10:40:07;;;;;;;2.70;1.20;;;23.60;32.70;;;;;;5028434;28;21275;-43
2021/04/11 10:42:35;;;;;;;1.60;1.50;;;23.30;32.60;;;;;;5029873;28;20464;-43
2021/04/11 10:45:27;;;;;;;1.53;1.33;;;23.60;32.70;;;;;;5015693;28;20449;-42
2021/04/11 10:48:27;;;;;;;1.40;1.30;;;23.40;32.80;;;;;;5003134;28;20981;-43
2021/04/11 10:51:04;;;;;;;1.87;1.73;;;23.40;32.30;;;;;;5027570;28;20527;-44
2021/04/11 10:53:42;;;;;;;1.33;1.23;;;23.40;32.20;;;;;;5027179;28;20443;-42
2021/04/11 10:56:26;;;;;;;2.27;2.00;;;23.60;32.40;;;;;;5033808;28;20907;-44
2021/04/11 10:59:17;;;;;;;1.93;1.60;;;23.70;32.30;;;;;;5031467;28;20439;-46
2021/04/11 11:02:15;;;;;;;2.00;1.30;;;23.80;31.30;;;;;;5034536;28;20487;-47
2021/04/11 11:04:56;;;;;;;2.47;1.73;;;23.70;31.70;;;;;;5034725;28;20501;-45
2021/04/11 11:08:05;;;;;;;1.97;1.40;;;24.00;32.10;;;;;;5025456;28;20482;-44
2021/04/11 11:10:39;;;;;;;1.70;1.60;;;24.20;31.00;;;;;;4998147;28;20443;-44
2021/04/11 11:13:16;;;;;;;2.20;1.40;;;24.30;31.10;;;;;;5036797;28;20490;-43
2021/04/11 11:15:53;;;;;;;2.60;1.50;;;24.50;31.10;;;;;;5042178;28;20556;-44
2021/04/11 11:18:25;;;;;;;1.60;1.20;;;24.50;30.90;;;;;;5045212;28;20550;-47
2021/04/11 11:21:10;;;;;;;2.17;1.53;;;24.40;30.30;;;;;;5043383;28;20549;-44
2021/04/11 11:23:48;;;;;;;1.67;1.57;;;24.60;30.40;;;;;;5042199;28;20451;-44
2021/04/11 11:26:42;;;;;;;1.77;1.67;;;24.90;31.20;;;;;;5039835;28;20447;-47
2021/04/11 11:29:32;;;;;;;2.80;1.80;;;24.80;30.40;;;;;;5036879;28;20442;-47
2021/04/11 11:32:17;;;;;;;3.50;2.20;;;25.00;30.10;;;;;;5040872;28;20921;-43
2021/04/11 11:34:50;;;;;;;1.77;1.40;;;25.00;30.30;;;;;;5034527;28;20484;-44
2021/04/11 11:37:39;;;;;;;4.90;1.83;;;24.70;30.10;;;;;;5040091;28;20447;-46
2021/04/11 11:40:11;;;;;;;2.17;1.97;;;24.40;30.40;;;;;;5049428;28;20438;-46
2021/04/11 11:42:59;;;;;;;2.37;1.63;;;24.50;30.90;;;;;;5039919;28;20554;-42
2021/04/11 11:45:35;;;;;;;2.80;1.67;;;24.40;31.00;;;;;;5043836;28;20443;-42
2021/04/11 11:48:07;;;;;;;1.83;1.43;;;24.00;30.90;;;;;;5043836;28;20957;-43
2021/04/11 11:50:44;;;;;;;1.50;1.40;;;23.90;31.50;;;;;;5035371;28;20867;-42
2021/04/11 11:53:22;;;;;;;2.70;1.50;;;23.70;32.50;;;;;;5032487;28;20498;-42
2021/04/11 11:56:11;;;;;;;2.40;1.80;;;23.70;31.50;;;;;;5038374;28;20944;-42
2021/04/11 11:59:16;;;;;;;2.47;1.60;;;23.50;32.00;;;;;;5039650;28;20534;-43
2021/04/11 12:01:51;;;;;;;1.50;1.40;;;23.30;31.60;;;;;;5032038;28;20502;-42
2021/04/11 12:04:35;;;;;;;1.70;1.50;;;23.40;31.80;;;;;;5033272;28;20915;-42
2021/04/11 12:07:37;;;;;;;2.17;1.70;;;23.60;32.10;;;;;;5037715;28;20439;-43
2021/04/11 12:10:08;;;;;;;2.13;1.40;;;23.70;31.90;;;;;;5007212;28;20446;-43
2021/04/11 12:12:44;;;;;;;2.97;2.37;;;23.80;31.70;;;;;;5031177;28;20445;-42
2021/04/11 12:15:22;;;;;;;2.73;2.03;;;23.80;31.70;;;;;;5045250;28;20439;-42
2021/04/11 12:18:10;;;;;;;2.57;2.10;;;23.70;31.70;;;;;;5042882;28;20470;-43
2021/04/11 12:20:43;;;;;;;1.70;1.60;;;24.00;31.80;;;;;;5037989;28;20475;-42
2021/04/11 12:23:34;;;;;;;1.30;1.20;;;24.20;31.90;;;;;;5027923;28;20448;-42
2021/04/11 12:26:18;;;;;;;2.53;1.80;;;24.50;31.60;;;;;;5036676;28;20431;-45
2021/04/11 12:28:46;;;;;;;1.90;1.70;;;24.80;31.30;;;;;;5013953;28;20570;-43
2021/04/11 12:31:36;;;;;;;1.40;1.30;;;25.00;30.40;;;;;;5036021;28;20435;-42
2021/04/11 12:34:23;;;;;;;2.27;1.70;;;25.20;30.00;;;;;;5036820;28;20439;-42
2021/04/11 12:37:13;;;;;;;1.83;1.63;;;25.40;29.90;;;;;;5043034;28;20985;-42
2021/04/11 12:39:39;;;;;;;2.23;1.50;;;25.70;29.80;;;;;;5039506;28;20439;-42
2021/04/11 12:42:18;;;;;;;1.93;1.77;;;25.80;29.40;;;;;;5033445;28;20484;-42
2021/04/11 12:45:05;;;;;;;1.90;1.80;;;25.80;29.50;;;;;;5031768;28;20444;-43
2021/04/11 12:47:34;;;;;;;2.70;1.70;;;25.90;29.30;;;;;;5043604;28;20574;-45
2021/04/11 12:50:24;;;;;;;1.40;1.30;;;25.90;29.10;;;;;;5044080;28;20480;-44
2021/04/11 12:53:03;;;;;;;1.97;1.87;;;26.00;29.20;;;;;;5033722;28;20884;-45
2021/04/11 12:55:51;;;;;;;2.27;1.90;;;26.20;29.70;;;;;;5034313;28;20490;-44
2021/04/11 12:58:38;;;;;;;1.60;1.50;;;26.20;29.00;;;;;;5044786;28;20423;-43
2021/04/11 13:01:13;;;;;;;1.70;1.60;;;26.30;29.20;;;;;;5044661;28;20485;-45
2021/04/11 13:03:57;;;;;;;2.33;1.70;;;26.20;29.10;;;;;;5023575;28;20942;-44
2021/04/11 13:06:38;;;;;;;2.90;1.70;;;26.20;28.80;;;;;;5040884;28;20480;-42
2021/04/11 13:09:25;;;;;;;1.87;1.50;;;26.00;29.50;;;;;;5040257;28;20448;-42
2021/04/11 13:12:05;;;;;;;2.50;1.43;;;26.10;29.50;;;;;;5039436;28;20435;-45
2021/04/11 13:15:00;;;;;;;2.23;2.03;;;26.10;30.10;;;;;;5042781;28;20455;-42
2021/04/11 13:17:37;;;;;;;2.57;1.57;;;26.00;31.50;;;;;;5040858;28;20470;-41
2021/04/11 13:20:44;;;;;;;5.63;2.80;;;25.90;32.30;;;;;;5037403;28;20786;-43
2021/04/11 13:23:33;;;;;;;4.17;3.10;;;25.80;31.60;;;;;;5031221;28;20436;-44
2021/04/11 13:26:15;;;;;;;4.03;1.90;;;25.50;32.00;;;;;;5033322;28;20431;-43
2021/04/11 13:29:03;;;;;;;2.80;1.83;;;25.10;33.30;;;;;;5043554;28;20522;-42
2021/04/11 13:31:45;;;;;;;4.13;1.80;;;24.90;33.60;;;;;;5035864;28;20968;-44
2021/04/11 13:34:21;;;;;;;1.73;1.40;;;25.00;34.10;;;;;;5042869;28;20448;-43
2021/04/11 13:36:49;;;;;;;2.20;1.50;;;25.00;34.10;;;;;;5040889;28;20463;-45
2021/04/11 13:39:26;;;;;;;1.80;1.70;;;25.00;35.20;;;;;;5045312;28;20441;-43
2021/04/11 13:41:54;;;;;;;4.00;1.50;;;25.00;35.50;;;;;;5040188;28;21096;-42
2021/04/11 13:44:35;;;;;;;1.67;1.53;;;25.00;35.90;;;;;;5044626;28;20437;-42
2021/04/11 13:47:25;;;;;;;2.03;1.70;;;25.00;36.20;;;;;;5038615;28;20443;-44
2021/04/11 13:50:00;;;;;;;3.20;2.30;;;25.10;35.90;;;;;;5041328;28;20435;-43